Hlavní strana
METAR-TAF:

METAR-TAF

Letiště :

Ponta Delgada, Azory, Portugalsko

zeměpisná šířka: 37-44N, zeměpisná délka: 025-42W, výška: 71 m

Aktuální stav počasí

Zpráva byla vytvořena před 19 minutami, v 08:30 UTC
Jihozápadní vítr 6 kt, proměnlivý mezi jižním a západojihozápadním
Teplota 22°C
Vlhkost vzduchu 88%
Tlak 1021 hPa
Viditelnost 10 km a více
Polojasno ve výšce 1500 ft

METAR: LPPD 200830Z 22006KT 180V240 9999 SCT015 22/20 Q1021

Čas: 08:49 (08:49 UTC)

Předpověď počasí

Zpráva byla vytvořena před 3 hodinami a 49 minutami, v 05:00 UTC
Předpověď platná od 20 v 06 UTC do 21 v 06 UTC
vítr z různých směrů 5 kt
Viditelnost 10 km a více
Skoro jasno ve výšce 1500 ft
Změna
od 20 v 10 UTC do 20 v 12 UTC
Jihozápadní vítr 8 kt
Polojasno ve výšce 2000 ft

TAF: LPPD 200500Z 2006/2106 VRB05KT 9999 FEW015 BECMG 2010/2012 23008KT SCT020

Stav a předpovědi počasí z více než 4 000 letišť (zprávy METAR a TAF).

Červené a žluté tečky na mapě představují dostupné meteorologické stanice.

Když kurzor umístíte na tečku, zobrazí se název stanice.

Pak kliknutím zobrazíte stav a předpověď počasí.

Chcete-li změnit mapu, kliknutím na zelené tlačítko se znaménkem +mapu přiblížíte, kliknutím na zelené tlačítko se znaménkem – mapu oddálíte a kliknutím na zelené šipky přejdete na sousední mapy.


METAR-TAF: